Time;durP1;ratioP1;P1;durP2;ratioP2;P2;SDS_P1;SDS_P2;PMS_P1;PMS_P2;Temp;Humidity;BMP_temperature;BMP_pressure;BME280_temperature;BME280_humidity;BME280_pressure;Samples;Min_cycle;Max_cycle;Signal;HPM_P1;HPM_P2
2022/04/26 03:37:59;;;;;;;3.10;2.90;;;8.40;91.40;;;;;;6181769;23;20910;-77
2022/04/26 03:40:26;;;;;;;2.92;2.50;;;8.40;91.60;;;;;;6181821;23;20384;-78
2022/04/26 03:42:52;;;;;;;2.90;2.60;;;8.50;91.30;;;;;;6179968;23;20379;-77
2022/04/26 03:45:19;;;;;;;2.97;2.78;;;8.50;90.90;;;;;;6180397;23;20713;-79
2022/04/26 03:47:46;;;;;;;2.50;2.30;;;8.60;90.70;;;;;;6179358;23;20372;-77
2022/04/26 03:50:13;;;;;;;2.55;2.35;;;8.60;90.60;;;;;;6180190;23;20380;-78
2022/04/26 03:52:40;;;;;;;2.38;2.17;;;8.70;90.30;;;;;;6181174;23;20380;-78
2022/04/26 03:55:08;;;;;;;14.23;9.63;;;8.80;90.00;;;;;;6180675;23;20846;-77
2022/04/26 03:57:34;;;;;;;28.85;19.38;;;8.80;89.90;;;;;;6182070;23;20938;-79
2022/04/26 04:00:02;;;;;;;33.47;20.83;;;8.90;89.70;;;;;;6179770;23;20435;-77
2022/04/26 04:02:29;;;;;;;42.70;25.70;;;8.90;89.70;;;;;;6157408;23;20374;-77
2022/04/26 04:04:56;;;;;;;60.40;35.38;;;8.90;90.00;;;;;;6174104;23;20405;-79
2022/04/26 04:07:23;;;;;;;66.05;37.63;;;9.00;90.40;;;;;;6174854;23;20391;-79
2022/04/26 04:09:52;;;;;;;64.32;37.75;;;9.00;90.30;;;;;;6173974;23;20382;-79
2022/04/26 04:12:18;;;;;;;16.40;11.93;;;9.00;90.20;;;;;;6177536;23;20374;-79
2022/04/26 04:14:46;;;;;;;9.70;7.18;;;8.90;90.90;;;;;;6174675;23;20370;-77
2022/04/26 04:17:13;;;;;;;5.32;4.78;;;8.70;91.20;;;;;;6176440;23;20373;-78
2022/04/26 04:19:40;;;;;;;5.40;4.63;;;8.80;91.00;;;;;;6174518;23;20724;-78
2022/04/26 04:22:07;;;;;;;7.22;4.57;;;8.80;90.80;;;;;;6174047;23;20377;-77
2022/04/26 04:24:34;;;;;;;5.72;4.80;;;8.80;90.50;;;;;;6175920;23;20406;-79
2022/04/26 04:27:01;;;;;;;5.32;4.32;;;8.90;90.30;;;;;;6175070;23;20421;-77
2022/04/26 04:29:28;;;;;;;5.05;4.55;;;8.90;90.20;;;;;;6174568;23;20437;-79
2022/04/26 04:31:55;;;;;;;3.63;2.80;;;8.90;90.40;;;;;;6174495;23;20377;-79
2022/04/26 04:34:22;;;;;;;2.93;2.73;;;8.80;90.70;;;;;;6175478;23;20469;-79
2022/04/26 04:36:49;;;;;;;2.67;2.47;;;8.60;90.80;;;;;;6151778;23;20433;-78
2022/04/26 04:39:19;;;;;;;2.35;2.25;;;8.60;90.80;;;;;;6175410;23;20417;-79
2022/04/26 04:41:47;;;;;;;2.40;2.20;;;8.60;90.90;;;;;;6151257;23;20374;-77
2022/04/26 04:44:14;;;;;;;2.17;2.08;;;8.60;90.70;;;;;;6151715;23;20704;-79
2022/04/26 04:46:41;;;;;;;2.65;2.45;;;8.60;90.40;;;;;;6174974;23;20432;-79
2022/04/26 04:49:08;;;;;;;2.70;2.50;;;8.60;90.40;;;;;;6176182;23;20378;-78
2022/04/26 04:51:35;;;;;;;2.50;2.30;;;8.50;90.40;;;;;;6169508;23;20759;-78
2022/04/26 04:54:02;;;;;;;3.88;3.58;;;8.50;90.30;;;;;;6150640;23;20362;-78
2022/04/26 04:56:29;;;;;;;3.50;3.20;;;8.50;90.90;;;;;;6175445;23;20437;-78
2022/04/26 04:58:56;;;;;;;3.25;3.05;;;8.50;90.80;;;;;;6173947;23;20382;-78
2022/04/26 05:01:23;;;;;;;3.13;2.83;;;8.50;90.80;;;;;;6175525;23;20382;-79
2022/04/26 05:03:51;;;;;;;3.80;3.50;;;8.60;90.70;;;;;;6173265;23;20405;-80
2022/04/26 05:06:18;;;;;;;2.97;2.78;;;8.60;90.90;;;;;;6175309;23;20389;-79
2022/04/26 05:08:46;;;;;;;3.22;3.03;;;8.70;90.60;;;;;;6151150;23;20374;-79
2022/04/26 05:11:13;;;;;;;3.10;2.90;;;8.70;90.70;;;;;;6175583;23;20374;-77
2022/04/26 05:13:40;;;;;;;3.88;3.58;;;8.60;90.90;;;;;;6176891;23;20378;-77
2022/04/26 05:16:07;;;;;;;3.30;3.10;;;8.50;91.40;;;;;;6180224;23;20825;-78
2022/04/26 05:18:34;;;;;;;3.58;3.28;;;8.50;91.40;;;;;;6182777;23;20376;-80
2022/04/26 05:21:01;;;;;;;3.80;3.50;;;8.60;91.10;;;;;;6181307;23;20698;-78
2022/04/26 05:26:13;;;;;;;4.20;3.15;;;8.80;90.90;;;;;;6183293;23;20828;-78
2022/04/26 05:28:40;;;;;;;3.37;3.07;;;8.90;90.70;;;;;;6180833;23;20696;-78
2022/04/26 05:31:08;;;;;;;3.58;3.28;;;9.00;90.40;;;;;;6181274;23;20380;-78
2022/04/26 05:33:35;;;;;;;3.53;3.28;;;9.10;90.70;;;;;;6182964;23;20383;-79
2022/04/26 05:36:03;;;;;;;3.65;3.35;;;9.10;90.70;;;;;;6180898;23;20923;-78
2022/04/26 05:38:30;;;;;;;4.07;3.63;;;9.20;90.90;;;;;;6182088;23;20849;-78
2022/04/26 05:40:57;;;;;;;3.70;3.28;;;9.30;90.90;;;;;;6181836;23;20857;-78
2022/04/26 05:43:23;;;;;;;3.27;2.97;;;9.40;91.00;;;;;;6181080;23;20384;-80
2022/04/26 05:45:50;;;;;;;4.40;2.30;;;9.60;90.60;;;;;;6179791;23;20380;-79
2022/04/26 05:48:17;;;;;;;2.00;1.80;;;9.80;90.10;;;;;;6181918;23;20388;-78
2022/04/26 05:50:44;;;;;;;3.45;2.35;;;10.00;89.40;;;;;;6181875;23;20384;-78
2022/04/26 05:53:11;;;;;;;2.78;2.03;;;10.10;88.80;;;;;;6181229;23;20388;-79
2022/04/26 05:55:41;;;;;;;4.22;2.80;;;10.20;88.80;;;;;;6181724;23;20377;-78
2022/04/26 05:58:09;;;;;;;3.25;2.95;;;10.30;90.10;;;;;;6180140;23;20417;-78
2022/04/26 06:00:36;;;;;;;3.45;3.15;;;10.40;89.70;;;;;;6182823;23;20435;-78
2022/04/26 06:03:03;;;;;;;3.80;2.92;;;10.40;90.00;;;;;;6180323;23;20383;-77
2022/04/26 06:05:30;;;;;;;5.13;2.83;;;10.40;88.80;;;;;;6182076;23;20373;-78
2022/04/26 06:07:59;;;;;;;2.70;2.50;;;10.40;88.60;;;;;;6181739;23;20376;-79
2022/04/26 06:10:26;;;;;;;2.80;2.42;;;10.50;88.40;;;;;;6181863;23;20439;-78
2022/04/26 06:12:54;;;;;;;2.83;2.63;;;10.50;88.70;;;;;;6180366;23;20380;-80
2022/04/26 06:15:21;;;;;;;4.63;2.37;;;10.60;89.00;;;;;;6181646;23;20501;-78
2022/04/26 06:17:48;;;;;;;2.58;2.17;;;10.70;88.90;;;;;;6181906;23;20690;-78
2022/04/26 06:20:16;;;;;;;2.60;2.20;;;10.80;88.60;;;;;;6179882;23;20411;-79
2022/04/26 06:22:43;;;;;;;2.70;2.10;;;10.90;87.40;;;;;;6183619;23;20380;-78
2022/04/26 06:25:10;;;;;;;3.35;2.17;;;11.00;86.70;;;;;;6182210;23;20376;-77
2022/04/26 06:27:37;;;;;;;3.95;2.42;;;11.10;87.00;;;;;;6181951;23;20848;-77
2022/04/26 06:30:05;;;;;;;3.00;2.27;;;11.20;85.60;;;;;;6179964;23;20377;-79
2022/04/26 06:32:32;;;;;;;4.43;2.45;;;11.20;84.50;;;;;;6181170;23;20372;-77
2022/04/26 06:34:59;;;;;;;4.35;2.10;;;11.20;84.10;;;;;;6180021;23;20395;-77
2022/04/26 06:37:25;;;;;;;2.90;1.80;;;11.30;84.90;;;;;;6181592;23;20376;-77
2022/04/26 06:39:53;;;;;;;3.65;2.10;;;11.50;83.30;;;;;;6181294;23;20439;-77
2022/04/26 06:42:20;;;;;;;3.28;1.70;;;11.60;81.20;;;;;;6181020;23;20459;-77
2022/04/26 06:44:47;;;;;;;3.05;1.90;;;11.70;80.70;;;;;;6180073;23;20764;-78
2022/04/26 06:47:14;;;;;;;4.00;2.03;;;11.80;80.80;;;;;;6180638;23;20357;-77
2022/04/26 06:49:41;;;;;;;3.67;1.80;;;11.90;79.60;;;;;;6182678;23;20377;-79
2022/04/26 06:52:08;;;;;;;3.83;2.40;;;11.90;78.40;;;;;;6184169;23;20376;-77
2022/04/26 06:54:35;;;;;;;3.13;2.10;;;12.10;78.70;;;;;;6182903;23;21206;-79
2022/04/26 06:57:03;;;;;;;3.53;2.00;;;12.10;77.60;;;;;;6182603;23;20376;-77
2022/04/26 06:59:30;;;;;;;5.30;1.95;;;12.10;78.50;;;;;;6136244;23;20452;-77
2022/04/26 07:01:57;;;;;;;3.35;1.92;;;12.10;77.70;;;;;;6175340;23;20396;-78
2022/04/26 07:04:24;;;;;;;3.10;2.10;;;12.00;76.80;;;;;;6183779;23;20415;-78
2022/04/26 07:06:52;;;;;;;2.70;1.88;;;12.10;77.50;;;;;;6180760;23;20376;-77
2022/04/26 07:09:19;;;;;;;2.33;2.03;;;12.30;77.80;;;;;;6180422;23;20423;-78
2022/04/26 07:11:46;;;;;;;5.32;2.10;;;12.40;76.80;;;;;;6179992;23;20372;-78
2022/04/26 07:14:14;;;;;;;2.15;1.80;;;12.50;76.40;;;;;;6180250;23;20895;-79
2022/04/26 07:16:48;;;;;;;3.80;2.20;;;12.60;76.00;;;;;;6180771;23;20456;-78
2022/04/26 07:19:18;;;;;;;4.45;1.73;;;12.70;75.90;;;;;;6179586;23;20376;-77
2022/04/26 07:21:47;;;;;;;4.07;1.75;;;12.80;74.90;;;;;;6180913;23;20920;-78
2022/04/26 07:24:31;;;;;;;4.85;1.88;;;13.00;74.40;;;;;;6180388;23;20368;-77
2022/04/26 07:26:58;;;;;;;3.13;2.08;;;13.10;74.20;;;;;;6180765;23;20387;-78
2022/04/26 07:29:25;;;;;;;3.00;1.95;;;13.10;74.20;;;;;;6179970;23;20376;-78
2022/04/26 07:31:52;;;;;;;3.25;1.90;;;13.10;74.30;;;;;;6180432;23;20372;-78
2022/04/26 07:34:24;;;;;;;4.18;2.10;;;13.30;74.30;;;;;;6178703;23;20388;-77
2022/04/26 07:36:59;;;;;;;4.03;2.13;;;13.40;73.50;;;;;;6181984;23;20380;-79
2022/04/26 07:39:28;;;;;;;3.95;1.90;;;13.30;73.00;;;;;;6180577;23;20364;-78
2022/04/26 07:41:55;;;;;;;3.92;1.90;;;13.40;74.20;;;;;;6180950;23;20406;-78
2022/04/26 07:44:22;;;;;;;4.18;2.47;;;13.50;73.50;;;;;;6181054;23;20839;-77
2022/04/26 07:46:50;;;;;;;3.25;2.10;;;13.60;73.20;;;;;;6180586;23;20376;-78
2022/04/26 07:49:23;;;;;;;3.65;1.88;;;13.70;72.80;;;;;;6179311;23;20861;-79
2022/04/26 07:51:51;;;;;;;2.65;1.98;;;14.00;72.00;;;;;;6182044;23;20407;-79
2022/04/26 07:54:18;;;;;;;2.90;1.80;;;14.20;70.70;;;;;;6180560;23;20438;-79
2022/04/26 07:56:45;;;;;;;5.13;2.30;;;14.30;69.00;;;;;;6180741;23;20380;-77
2022/04/26 07:59:14;;;;;;;4.47;2.67;;;14.40;69.30;;;;;;6180335;23;20380;-77
2022/04/26 08:01:42;;;;;;;5.32;3.00;;;14.60;70.50;;;;;;6180729;23;20376;-79
2022/04/26 08:04:09;;;;;;;5.88;2.90;;;14.90;70.00;;;;;;6181672;23;20391;-79
2022/04/26 08:06:35;;;;;;;9.02;3.95;;;15.20;71.60;;;;;;6181875;23;20737;-80
2022/04/26 08:09:02;;;;;;;5.80;3.20;;;15.20;70.70;;;;;;6180527;23;20384;-79
2022/04/26 08:11:29;;;;;;;8.02;4.18;;;15.00;70.30;;;;;;6179136;23;20372;-79
2022/04/26 08:13:56;;;;;;;7.95;3.88;;;15.30;72.00;;;;;;6180194;23;20380;-79
2022/04/26 08:16:23;;;;;;;7.15;4.30;;;15.20;71.80;;;;;;6181935;23;20438;-80
2022/04/26 08:18:51;;;;;;;6.57;3.40;;;15.40;70.80;;;;;;6179657;23;20377;-78
2022/04/26 08:21:18;;;;;;;6.55;3.72;;;15.50;70.00;;;;;;6179562;23;20389;-78
2022/04/26 08:29:19;;;;;;;9.57;4.32;;;15.30;70.10;;;;;;6180150;23;20860;-78
2022/04/26 08:31:45;;;;;;;7.82;4.47;;;15.20;71.20;;;;;;6179730;23;20372;-77
2022/04/26 08:34:12;;;;;;;9.27;4.38;;;15.00;72.70;;;;;;6181140;23;20687;-78
2022/04/26 08:36:39;;;;;;;10.60;4.78;;;15.10;72.50;;;;;;6182157;23;20376;-78
2022/04/26 08:39:07;;;;;;;7.20;4.70;;;15.30;72.90;;;;;;6182491;23;20430;-78
2022/04/26 08:41:34;;;;;;;7.57;5.00;;;15.70;71.20;;;;;;6180946;23;20436;-79
2022/04/26 08:44:07;;;;;;;9.90;4.70;;;15.70;70.50;;;;;;6179811;23;20376;-78
2022/04/26 08:52:08;;;;;;;9.60;4.18;;;15.70;70.30;;;;;;6183301;23;20389;-80
2022/04/26 08:54:35;;;;;;;9.85;4.88;;;15.90;70.40;;;;;;6181836;23;20418;-78
2022/04/26 08:57:09;;;;;;;7.45;3.72;;;16.40;69.30;;;;;;6183478;23;20380;-78
2022/04/26 08:59:48;;;;;;;8.00;3.60;;;16.80;69.40;;;;;;6181564;23;20372;-79
2022/04/26 09:02:16;;;;;;;7.80;3.95;;;16.80;66.50;;;;;;6182256;23;20384;-79
2022/04/26 09:04:44;;;;;;;9.30;3.72;;;16.80;66.80;;;;;;6182678;23;20383;-78
2022/04/26 09:07:29;;;;;;;7.35;2.90;;;16.90;66.90;;;;;;6182943;23;20440;-80
2022/04/26 09:10:15;;;;;;;8.15;3.50;;;16.80;67.40;;;;;;6169504;23;20368;-79
2022/04/26 09:13:04;;;;;;;7.47;3.20;;;17.20;67.20;;;;;;6181643;23;20404;-78
2022/04/26 09:15:39;;;;;;;7.07;3.10;;;17.60;67.70;;;;;;6181501;23;20404;-79
2022/04/26 09:18:21;;;;;;;8.98;3.72;;;17.40;66.10;;;;;;6182192;23;20423;-78
2022/04/26 09:20:51;;;;;;;7.90;3.38;;;17.70;65.60;;;;;;6181934;23;20730;-79
2022/04/26 09:23:20;;;;;;;8.15;2.92;;;17.70;65.10;;;;;;6182393;23;20368;-78
2022/04/26 09:25:51;;;;;;;9.30;3.30;;;17.60;65.70;;;;;;6181365;23;20372;-79
2022/04/26 09:28:29;;;;;;;7.07;2.80;;;17.60;63.90;;;;;;6182706;23;20398;-78
2022/04/26 09:30:57;;;;;;;7.20;2.63;;;17.70;63.40;;;;;;6181852;23;20381;-79
2022/04/26 09:33:37;;;;;;;9.27;3.08;;;17.50;62.50;;;;;;6182173;23;20387;-80
2022/04/26 09:36:09;;;;;;;5.53;2.88;;;17.80;64.80;;;;;;6151864;23;20416;-79
2022/04/26 09:38:37;;;;;;;8.17;3.03;;;17.80;64.40;;;;;;6164037;23;20470;-80
2022/04/26 09:41:10;;;;;;;8.55;2.80;;;18.10;62.90;;;;;;6182961;23;20373;-78
2022/04/26 09:43:38;;;;;;;6.18;2.40;;;18.30;63.40;;;;;;6180832;23;20440;-80
2022/04/26 09:46:06;;;;;;;6.88;2.85;;;18.00;63.60;;;;;;6181151;23;20368;-79
2022/04/26 09:48:36;;;;;;;7.65;3.22;;;18.50;63.80;;;;;;6183776;23;20396;-80
2022/04/26 09:51:04;;;;;;;7.10;2.90;;;18.70;59.30;;;;;;6182060;23;20372;-80
2022/04/26 09:53:32;;;;;;;6.13;2.85;;;18.40;58.90;;;;;;6183937;23;20434;-77
2022/04/26 09:56:01;;;;;;;6.07;2.67;;;18.00;60.10;;;;;;6183714;23;20380;-80
2022/04/26 09:58:29;;;;;;;8.13;3.17;;;17.90;62.80;;;;;;6182558;23;20919;-80
2022/04/26 10:01:00;;;;;;;7.75;3.53;;;18.10;60.30;;;;;;6181898;23;20439;-81
2022/04/26 10:03:48;;;;;;;16.20;10.97;;;17.90;62.50;;;;;;6181621;23;20372;-79
2022/04/26 10:06:16;;;;;;;16.38;10.48;;;17.80;63.90;;;;;;6181360;23;20442;-78
2022/04/26 10:08:44;;;;;;;12.10;6.22;;;17.60;63.20;;;;;;6182911;23;20403;-79
2022/04/26 10:11:11;;;;;;;14.65;13.15;;;17.50;61.90;;;;;;6182005;23;20423;-78
2022/04/26 10:13:39;;;;;;;8.43;5.10;;;17.50;64.00;;;;;;6184289;23;20428;-79
2022/04/26 10:16:09;;;;;;;9.25;5.93;;;17.90;65.30;;;;;;6181665;23;20376;-80
2022/04/26 10:18:43;;;;;;;8.43;4.75;;;18.60;62.70;;;;;;6180199;23;20730;-81
2022/04/26 10:21:30;;;;;;;6.82;4.45;;;18.90;59.80;;;;;;6182553;23;20380;-78
2022/04/26 10:24:01;;;;;;;9.55;4.30;;;18.70;62.00;;;;;;6178919;23;20384;-79
2022/04/26 10:26:29;;;;;;;7.27;3.97;;;19.10;60.10;;;;;;6182643;23;20894;-79
2022/04/26 10:29:02;;;;;;;6.00;4.05;;;18.90;59.40;;;;;;6182140;23;20426;-78
2022/04/26 10:35:23;;;;;;;7.30;4.28;;;19.30;59.00;;;;;;6155795;23;20367;-79
2022/04/26 10:38:37;;;;;;;7.72;4.70;;;18.80;58.50;;;;;;6183258;23;20376;-80
2022/04/26 10:41:04;;;;;;;7.70;4.73;;;18.00;60.30;;;;;;6150775;23;20378;-79
2022/04/26 10:43:31;;;;;;;7.72;4.53;;;18.00;63.30;;;;;;6152191;23;20444;-78
2022/04/26 10:46:15;;;;;;;11.00;5.10;;;18.50;60.00;;;;;;6152663;23;20456;-79
2022/04/26 10:48:42;;;;;;;7.60;4.15;;;18.60;60.40;;;;;;6177441;23;20922;-78
2022/04/26 10:51:33;;;;;;;8.70;4.70;;;18.70;58.60;;;;;;6176952;23;20889;-79
2022/04/26 10:54:04;;;;;;;5.65;3.75;;;18.80;59.60;;;;;;6152943;23;20366;-78
2022/04/26 10:56:32;;;;;;;7.68;4.80;;;19.00;56.90;;;;;;6178353;23;20381;-78
2022/04/26 10:58:59;;;;;;;8.98;4.78;;;19.20;57.80;;;;;;6176742;23;20381;-80
2022/04/26 11:01:29;;;;;;;7.43;4.22;;;18.90;57.60;;;;;;6150847;23;20386;-79
2022/04/26 11:03:58;;;;;;;7.55;4.63;;;19.10;58.60;;;;;;6175424;23;20393;-79
2022/04/26 11:06:37;;;;;;;5.32;3.97;;;19.00;56.60;;;;;;6176801;23;20407;-80
2022/04/26 11:09:14;;;;;;;6.00;4.15;;;19.30;55.20;;;;;;6174639;23;20465;-79
2022/04/26 11:11:53;;;;;;;6.80;4.10;;;19.50;56.60;;;;;;6175065;23;20386;-78
2022/04/26 11:14:24;;;;;;;6.45;4.00;;;19.60;55.90;;;;;;6175417;23;20858;-79
2022/04/26 11:16:59;;;;;;;6.32;3.60;;;18.80;53.50;;;;;;6177165;23;20375;-79
2022/04/26 11:19:34;;;;;;;9.10;4.80;;;18.80;55.70;;;;;;6177541;23;20382;-78
2022/04/26 11:22:10;;;;;;;7.22;3.80;;;18.30;56.40;;;;;;6175580;23;20374;-79
2022/04/26 11:30:10;;;;;;;5.10;3.97;;;18.00;57.10;;;;;;6179899;23;20380;-80
2022/04/26 11:32:44;;;;;;;5.70;3.88;;;17.90;57.90;;;;;;6179093;23;20395;-80
2022/04/26 11:35:14;;;;;;;7.03;4.82;;;17.90;59.80;;;;;;6181436;23;20484;-79
2022/04/26 11:37:44;;;;;;;6.78;4.47;;;18.00;59.80;;;;;;6180793;23;20903;-80
2022/04/26 11:40:12;;;;;;;7.65;4.40;;;18.10;60.70;;;;;;6180045;23;20434;-79
2022/04/26 11:42:39;;;;;;;6.88;4.43;;;18.20;60.30;;;;;;6180654;23;20391;-79
2022/04/26 11:45:06;;;;;;;7.55;4.45;;;18.10;60.80;;;;;;6179201;23;20376;-79
2022/04/26 11:47:44;;;;;;;8.50;5.53;;;18.00;60.70;;;;;;6181434;23;20475;-79
2022/04/26 11:50:13;;;;;;;10.50;5.80;;;17.70;61.70;;;;;;6179405;23;20384;-80
2022/04/26 11:52:44;;;;;;;8.27;5.00;;;17.40;61.80;;;;;;6179982;23;20741;-79
2022/04/26 11:55:23;;;;;;;8.63;4.63;;;17.50;63.80;;;;;;6154582;23;21222;-79
2022/04/26 11:57:51;;;;;;;9.38;5.05;;;17.70;62.30;;;;;;6181113;23;20864;-79
2022/04/26 12:00:21;;;;;;;7.63;4.80;;;17.90;62.90;;;;;;6180405;23;20377;-80
2022/04/26 12:02:49;;;;;;;8.38;5.00;;;18.00;61.20;;;;;;6180606;23;20430;-79
2022/04/26 12:05:20;;;;;;;8.77;4.70;;;18.20;59.60;;;;;;6179165;23;20710;-81
2022/04/26 12:07:49;;;;;;;5.80;4.68;;;17.90;58.80;;;;;;6180236;23;20435;-80
2022/04/26 12:10:33;;;;;;;6.00;4.22;;;17.80;59.30;;;;;;6180452;23;20753;-80
2022/04/26 12:13:05;;;;;;;7.40;4.40;;;17.90;60.20;;;;;;6180912;23;20384;-79
2022/04/26 12:15:35;;;;;;;9.88;4.18;;;18.00;60.10;;;;;;6181052;23;20369;-80
2022/04/26 12:18:06;;;;;;;15.02;9.73;;;18.20;60.10;;;;;;6157409;23;20372;-79
2022/04/26 12:20:54;;;;;;;12.68;7.32;;;18.10;60.50;;;;;;6181162;23;20368;-79
2022/04/26 12:23:22;;;;;;;11.10;5.53;;;18.10;60.10;;;;;;6181158;23;20844;-79
2022/04/26 12:26:09;;;;;;;6.20;4.35;;;18.20;60.70;;;;;;6183216;23;20488;-80
2022/04/26 12:28:47;;;;;;;7.57;4.05;;;18.40;60.90;;;;;;6182872;23;20364;-79
2022/04/26 12:31:26;;;;;;;8.40;4.50;;;18.50;60.60;;;;;;6181997;23;20507;-79
2022/04/26 12:34:12;;;;;;;7.45;4.72;;;19.00;60.70;;;;;;6157362;23;20459;-80
2022/04/26 12:36:58;;;;;;;14.13;8.90;;;19.40;58.20;;;;;;6183945;23;20983;-81
2022/04/26 12:39:39;;;;;;;24.33;12.82;;;19.40;56.90;;;;;;6184357;23;20380;-80
2022/04/26 12:42:07;;;;;;;7.60;4.65;;;19.50;56.90;;;;;;6183102;23;20383;-80
2022/04/26 12:44:37;;;;;;;8.43;4.87;;;19.40;56.20;;;;;;6183398;23;20388;-80
2022/04/26 12:52:54;;;;;;;10.87;5.73;;;19.10;57.00;;;;;;6183406;23;20526;-79
2022/04/26 12:55:29;;;;;;;7.55;4.25;;;19.10;56.00;;;;;;6182326;23;20384;-79
2022/04/26 12:58:01;;;;;;;5.80;4.25;;;19.30;57.90;;;;;;6181861;23;20368;-80
2022/04/26 13:00:29;;;;;;;7.20;3.53;;;19.40;56.50;;;;;;6182372;23;20380;-79
2022/04/26 13:02:59;;;;;;;6.07;3.88;;;19.70;56.20;;;;;;6181202;23;20379;-80
2022/04/26 13:05:44;;;;;;;9.02;3.78;;;19.80;55.60;;;;;;6182700;23;20887;-78
2022/04/26 13:08:16;;;;;;;7.03;4.28;;;19.80;54.40;;;;;;6208207;23;20371;-79
2022/04/26 13:10:44;;;;;;;6.85;3.53;;;19.60;56.10;;;;;;6185594;23;20434;-81
2022/04/26 13:13:12;;;;;;;5.93;3.90;;;19.80;55.80;;;;;;6181114;23;20729;-79
2022/04/26 13:15:41;;;;;;;4.20;3.40;;;20.00;55.70;;;;;;6181408;23;20372;-79
2022/04/26 13:18:10;;;;;;;6.83;4.10;;;20.10;55.00;;;;;;6181250;23;20863;-79
2022/04/26 13:20:38;;;;;;;5.75;3.50;;;20.20;54.10;;;;;;6184128;23;20384;-81
2022/04/26 13:23:11;;;;;;;10.43;7.07;;;20.30;54.00;;;;;;6181891;23;20492;-79
2022/04/26 13:25:38;;;;;;;7.20;5.07;;;20.40;53.60;;;;;;6181400;23;20376;-80
2022/04/26 13:28:06;;;;;;;6.03;4.93;;;20.10;52.70;;;;;;6183214;23;20384;-79
2022/04/26 13:30:34;;;;;;;6.97;4.50;;;19.80;53.60;;;;;;6182320;23;20438;-79
2022/04/26 13:33:03;;;;;;;6.20;4.80;;;19.70;55.50;;;;;;6179814;23;20411;-79
2022/04/26 13:35:30;;;;;;;6.60;3.47;;;20.10;55.60;;;;;;6181595;23;20376;-80
2022/04/26 13:38:01;;;;;;;4.35;2.80;;;20.80;55.00;;;;;;6180043;23;20372;-79
2022/04/26 13:40:28;;;;;;;6.05;4.00;;;21.20;50.40;;;;;;6181642;23;20442;-79
2022/04/26 13:42:56;;;;;;;4.90;3.53;;;21.40;50.90;;;;;;6182312;23;20687;-80
2022/04/26 13:45:24;;;;;;;4.65;2.65;;;21.30;48.90;;;;;;6183563;23;20789;-80
2022/04/26 13:47:51;;;;;;;4.78;3.22;;;21.50;49.20;;;;;;6180134;23;20392;-81
2022/04/26 13:50:19;;;;;;;3.90;2.55;;;21.50;50.60;;;;;;6181783;23;20380;-80
2022/04/26 13:52:46;;;;;;;5.68;4.25;;;22.00;48.60;;;;;;6181738;23;20435;-79
2022/04/26 13:55:17;;;;;;;6.72;4.35;;;22.20;47.80;;;;;;6182006;23;20368;-82
2022/04/26 13:57:45;;;;;;;6.47;4.00;;;22.20;49.40;;;;;;6183689;23;20837;-81
2022/04/26 14:00:16;;;;;;;7.88;3.40;;;22.50;48.20;;;;;;6180556;23;20365;-79
2022/04/26 14:02:46;;;;;;;6.90;4.25;;;22.50;48.20;;;;;;6184146;23;20380;-79
2022/04/26 14:05:17;;;;;;;6.82;3.92;;;22.30;47.30;;;;;;6182054;23;20380;-82
2022/04/26 14:07:47;;;;;;;6.07;3.15;;;22.10;47.80;;;;;;6184171;23;20432;-81
2022/04/26 14:10:15;;;;;;;6.45;3.65;;;21.90;49.70;;;;;;6182820;23;20443;-80
2022/04/26 14:12:43;;;;;;;6.57;3.83;;;21.80;48.00;;;;;;6182370;23;20377;-80
2022/04/26 14:23:28;;;;;;;7.10;4.93;;;21.20;49.90;;;;;;6182361;23;20447;-81
2022/04/26 14:25:59;;;;;;;7.03;4.80;;;20.90;49.20;;;;;;6180366;23;20384;-79
2022/04/26 14:28:26;;;;;;;6.32;4.50;;;20.10;51.20;;;;;;6181135;23;20367;-80
2022/04/26 14:30:53;;;;;;;7.20;4.40;;;20.20;52.40;;;;;;6182466;23;20857;-81
2022/04/26 14:33:20;;;;;;;7.70;4.32;;;20.00;52.60;;;;;;6180744;23;20384;-79
2022/04/26 14:35:47;;;;;;;7.87;4.47;;;19.80;52.50;;;;;;6183293;23;20389;-81
2022/04/26 14:38:14;;;;;;;7.30;4.22;;;19.50;52.70;;;;;;6184041;23;20450;-79
2022/04/26 14:40:41;;;;;;;5.55;3.40;;;19.50;54.20;;;;;;6181364;23;20380;-79
2022/04/26 14:43:11;;;;;;;5.15;3.75;;;19.40;54.00;;;;;;6179925;23;20388;-81
2022/04/26 14:45:47;;;;;;;7.60;4.67;;;19.40;54.10;;;;;;6184136;23;20891;-81
2022/04/26 14:48:17;;;;;;;8.68;5.60;;;19.40;52.90;;;;;;6180187;23;20466;-79
2022/04/26 14:50:52;;;;;;;14.32;9.43;;;19.40;53.50;;;;;;6180391;23;20383;-81
2022/04/26 14:53:19;;;;;;;8.82;4.15;;;19.50;53.00;;;;;;6180716;23;20391;-79
2022/04/26 14:56:04;;;;;;;14.07;12.68;;;19.60;52.30;;;;;;6180901;23;20384;-79
2022/04/26 14:58:33;;;;;;;6.30;4.25;;;19.60;51.60;;;;;;6171074;23;20459;-79
2022/04/26 15:01:01;;;;;;;6.80;3.20;;;19.80;52.40;;;;;;6181185;23;20380;-80
2022/04/26 15:03:30;;;;;;;6.43;3.30;;;19.80;51.70;;;;;;6179645;23;20379;-80
2022/04/26 15:06:00;;;;;;;6.75;3.30;;;19.70;51.00;;;;;;6181964;23;20383;-78
2022/04/26 15:11:13;;;;;;;6.50;3.42;;;20.20;51.10;;;;;;6181329;23;20451;-80
2022/04/26 15:16:42;;;;;;;8.43;5.50;;;21.00;52.00;;;;;;6181489;23;20384;-80
2022/04/26 15:19:12;;;;;;;7.73;5.80;;;21.30;52.60;;;;;;6180310;23;20772;-79
2022/04/26 15:21:42;;;;;;;8.23;5.60;;;21.20;53.40;;;;;;6181053;23;20379;-79
2022/04/26 15:24:09;;;;;;;7.13;5.07;;;21.10;53.70;;;;;;6179856;23;20380;-80
2022/04/26 15:26:36;;;;;;;12.02;6.63;;;21.00;53.90;;;;;;6179909;23;20431;-78
2022/04/26 15:29:04;;;;;;;9.90;5.93;;;20.60;55.50;;;;;;6180574;23;20465;-80
2022/04/26 15:31:34;;;;;;;9.87;6.77;;;20.30;55.90;;;;;;6181317;23;20377;-80
2022/04/26 15:34:02;;;;;;;10.88;6.15;;;20.30;55.20;;;;;;6179950;23;20407;-80
2022/04/26 15:36:29;;;;;;;10.77;6.03;;;20.30;55.50;;;;;;6180239;23;20368;-79
2022/04/26 15:38:58;;;;;;;9.00;6.50;;;20.20;56.40;;;;;;6180270;23;20379;-79
2022/04/26 15:41:26;;;;;;;10.00;5.55;;;19.70;56.30;;;;;;6180795;23;20381;-79
2022/04/26 15:43:53;;;;;;;9.00;5.93;;;19.70;57.80;;;;;;6182031;23;20478;-81
2022/04/26 15:46:39;;;;;;;8.32;6.15;;;19.70;56.70;;;;;;6181563;23;20447;-79
2022/04/26 15:49:06;;;;;;;11.60;6.45;;;19.80;56.80;;;;;;6180826;23;20436;-80
2022/04/26 15:51:34;;;;;;;11.38;7.50;;;19.90;56.90;;;;;;6181132;23;20753;-80
2022/04/26 15:54:02;;;;;;;9.73;6.40;;;19.90;56.70;;;;;;6179951;23;20376;-79
2022/04/26 15:56:29;;;;;;;11.32;6.32;;;19.90;57.00;;;;;;6181028;23;20857;-81
2022/04/26 15:58:56;;;;;;;9.68;6.35;;;19.90;57.70;;;;;;6180602;23;20430;-80
2022/04/26 16:01:25;;;;;;;8.53;5.90;;;20.10;57.70;;;;;;6180905;23;20388;-78
2022/04/26 16:03:54;;;;;;;9.05;4.80;;;20.30;56.20;;;;;;6179821;23;20384;-80
2022/04/26 16:06:21;;;;;;;9.75;5.80;;;20.40;56.30;;;;;;6179881;23;20404;-81
2022/04/26 16:08:48;;;;;;;9.35;5.20;;;20.30;55.40;;;;;;6180914;23;20380;-80
2022/04/26 16:22:19;;;;;;;11.37;6.43;;;19.60;57.50;;;;;;6179321;23;20491;-79
2022/04/26 16:24:48;;;;;;;9.17;5.90;;;19.50;58.00;;;;;;6183071;23;20376;-81
2022/04/26 16:27:15;;;;;;;9.48;5.97;;;19.60;57.50;;;;;;6180113;23;20376;-79
2022/04/26 16:29:42;;;;;;;9.80;7.85;;;19.70;57.50;;;;;;6179693;23;20400;-81
2022/04/26 16:32:08;;;;;;;7.60;5.80;;;20.00;57.40;;;;;;6179623;23;20974;-80
2022/04/26 16:34:36;;;;;;;8.43;6.10;;;20.20;57.00;;;;;;6180894;23;20376;-80
2022/04/26 16:37:04;;;;;;;7.95;5.82;;;20.30;56.80;;;;;;6179212;23;20403;-79
2022/04/26 16:39:31;;;;;;;9.80;5.28;;;20.40;56.00;;;;;;6180598;23;20384;-78
2022/04/26 16:41:58;;;;;;;7.93;4.68;;;20.60;55.30;;;;;;6179575;23;20378;-79
2022/04/26 16:44:25;;;;;;;8.50;4.72;;;20.90;55.30;;;;;;6180253;23;20387;-80
2022/04/26 16:46:51;;;;;;;8.77;5.00;;;20.90;54.30;;;;;;6180568;23;20372;-81
2022/04/26 16:49:18;;;;;;;8.00;5.73;;;20.90;54.10;;;;;;6179036;23;20361;-80
2022/04/26 16:51:45;;;;;;;7.05;4.68;;;20.70;54.10;;;;;;6181254;23;20407;-78
2022/04/26 16:54:14;;;;;;;7.65;4.55;;;20.80;54.70;;;;;;6181054;23;20372;-80
2022/04/26 16:56:44;;;;;;;6.30;4.85;;;20.80;54.80;;;;;;6180732;23;20427;-80
2022/04/26 16:59:13;;;;;;;8.17;4.90;;;21.00;55.10;;;;;;6181363;23;20524;-80
2022/04/26 17:01:44;;;;;;;8.95;5.53;;;21.10;54.10;;;;;;6181174;23;20377;-80
2022/04/26 17:04:12;;;;;;;9.77;7.57;;;21.10;54.10;;;;;;6178775;23;20928;-80
2022/04/26 17:06:40;;;;;;;8.87;5.80;;;20.50;54.80;;;;;;6182417;23;20595;-81
2022/04/26 17:09:07;;;;;;;10.90;5.78;;;20.20;55.90;;;;;;6180920;23;20380;-79
2022/04/26 17:11:43;;;;;;;7.20;5.30;;;20.20;56.20;;;;;;6182296;23;20380;-78
2022/04/26 17:14:16;;;;;;;8.98;5.90;;;20.30;56.20;;;;;;6180553;23;20384;-79
2022/04/26 17:16:45;;;;;;;7.05;5.68;;;20.10;56.60;;;;;;6181956;23;20380;-79
2022/04/26 17:19:16;;;;;;;8.45;5.30;;;20.00;56.00;;;;;;6181159;23;20918;-80
2022/04/26 17:21:46;;;;;;;6.75;4.63;;;19.80;56.80;;;;;;6182585;23;20381;-78
2022/04/26 17:27:01;;;;;;;9.53;6.17;;;19.60;57.70;;;;;;6183074;23;20380;-79
2022/04/26 17:29:27;;;;;;;8.37;6.23;;;19.50;58.00;;;;;;6187581;23;20388;-79
2022/04/26 17:31:55;;;;;;;5.90;4.93;;;19.40;58.10;;;;;;6178831;23;20749;-79
2022/04/26 17:34:23;;;;;;;8.75;5.43;;;19.50;58.40;;;;;;6182592;23;20372;-79